createdAt,value
2018-11-21T00:02:07.641Z,99207.00
2018-11-21T00:04:37.669Z,99214.00
2018-11-21T00:07:07.482Z,99215.00
2018-11-21T00:09:37.292Z,99224.00
2018-11-21T00:12:07.178Z,99218.00
2018-11-21T00:14:38.535Z,99206.00
2018-11-21T00:17:08.498Z,99209.00
2018-11-21T00:19:39.332Z,99206.00
2018-11-21T00:22:09.215Z,99116.00
2018-11-21T00:24:39.036Z,99198.00
2018-11-21T00:27:11.001Z,99200.00
2018-11-21T00:29:40.834Z,99201.00
2018-11-21T00:32:26.723Z,99190.00
2018-11-21T00:34:56.793Z,99182.00
2018-11-21T00:37:27.648Z,99187.00
2018-11-21T00:39:57.491Z,99181.00
2018-11-21T00:42:29.915Z,99178.00
2018-11-21T00:45:00.211Z,99183.00
2018-11-21T00:47:30.492Z,99176.00
2018-11-21T00:50:00.755Z,99165.00
2018-11-21T00:52:30.634Z,99123.00
2018-11-21T00:55:00.536Z,99161.00
2018-11-21T00:57:30.657Z,99160.00
2018-11-21T01:00:00.353Z,99164.00
2018-11-21T01:02:30.291Z,99164.00
2018-11-21T01:05:00.113Z,99176.00
2018-11-21T01:07:30.420Z,99162.00
2018-11-21T01:10:02.610Z,99156.00
2018-11-21T01:12:32.484Z,99158.00
2018-11-21T01:15:02.278Z,99158.00
2018-11-21T01:17:32.036Z,99167.00
2018-11-21T01:20:01.932Z,99161.00
2018-11-21T01:22:31.970Z,99150.00
2018-11-21T01:25:01.901Z,99169.00
2018-11-21T01:27:31.676Z,99157.00
2018-11-21T01:30:01.636Z,99159.00
2018-11-21T01:32:31.527Z,99159.00
2018-11-21T01:35:01.343Z,99168.00
2018-11-21T01:37:31.234Z,99165.00
2018-11-21T01:40:03.311Z,99161.00
2018-11-21T01:42:36.056Z,99161.00
2018-11-21T01:45:06.006Z,99165.00
2018-11-21T01:47:36.137Z,99159.00
2018-11-21T01:50:06.821Z,99165.00
2018-11-21T01:52:36.759Z,99164.00
2018-11-21T01:55:07.129Z,99164.00
2018-11-21T01:57:37.093Z,99173.00
2018-11-21T02:00:09.380Z,99172.00
2018-11-21T02:02:39.441Z,99162.00
2018-11-21T02:05:09.409Z,99162.00
2018-11-21T02:07:39.337Z,99154.00
2018-11-21T02:10:09.584Z,99149.00
2018-11-21T02:12:39.382Z,99146.00
2018-11-21T02:15:09.684Z,99144.00
2018-11-21T02:17:39.649Z,99155.00
2018-11-21T02:20:12.280Z,99152.00
2018-11-21T02:22:42.537Z,99147.00
2018-11-21T02:25:12.353Z,99148.00
2018-11-21T02:27:42.234Z,99149.00
2018-11-21T02:30:12.154Z,99145.00
2018-11-21T02:32:42.001Z,99134.00
2018-11-21T02:35:11.750Z,99141.00
2018-11-21T02:37:41.595Z,99136.00
2018-11-21T02:40:11.413Z,99141.00
2018-11-21T02:42:41.311Z,99137.00
2018-11-21T02:45:11.133Z,99133.00
2018-11-21T02:47:41.080Z,99120.00
2018-11-21T02:50:13.372Z,99124.00
2018-11-21T02:52:43.224Z,99112.00
2018-11-21T02:55:13.074Z,99114.00
2018-11-21T02:57:42.958Z,99119.00
2018-11-21T03:00:19.433Z,99110.00
2018-11-21T03:02:49.382Z,99107.00
2018-11-21T03:05:19.430Z,99111.00
2018-11-21T03:07:53.131Z,99103.00
2018-11-21T03:10:23.766Z,99104.00
2018-11-21T03:12:53.753Z,99110.00
2018-11-21T03:15:23.629Z,99114.00
2018-11-21T03:17:53.537Z,99125.00
2018-11-21T03:20:26.048Z,99114.00
2018-11-21T03:22:55.947Z,99120.00
2018-11-21T03:25:25.743Z,99114.00
2018-11-21T03:27:55.658Z,99114.00
2018-11-21T03:30:25.479Z,99126.00
2018-11-21T03:32:55.305Z,99120.00
2018-11-21T03:35:25.206Z,99118.00
2018-11-21T03:37:55.237Z,99114.00
2018-11-21T03:40:25.225Z,99117.00
2018-11-21T03:42:55.251Z,99123.00
2018-11-21T03:45:25.186Z,99116.00
2018-11-21T03:47:54.971Z,99109.00
2018-11-21T03:50:24.907Z,99118.00
2018-11-21T03:52:54.707Z,99132.00
2018-11-21T03:55:24.631Z,99136.00
2018-11-21T03:57:54.542Z,99130.00
2018-11-21T04:00:24.382Z,99128.00
2018-11-21T04:02:54.164Z,99136.00
2018-11-21T04:05:24.081Z,99132.00
2018-11-21T04:07:54.050Z,99139.00
2018-11-21T04:10:24.026Z,99148.00
2018-11-21T04:12:53.800Z,99136.00
2018-11-21T04:15:23.633Z,99136.00
2018-11-21T04:17:53.795Z,99139.00
2018-11-21T04:20:23.574Z,99132.00
2018-11-21T04:22:53.519Z,99143.00
2018-11-21T04:25:23.499Z,99144.00
2018-11-21T04:27:53.309Z,99147.00
2018-11-21T04:30:23.125Z,99147.00
2018-11-21T04:32:53.034Z,99141.00
2018-11-21T04:35:23.059Z,99145.00
2018-11-21T04:37:53.053Z,99149.00
2018-11-21T04:40:22.781Z,99146.00
2018-11-21T04:42:52.705Z,99153.00
2018-11-21T04:45:22.661Z,99150.00
2018-11-21T04:47:52.539Z,99154.00
2018-11-21T04:50:22.344Z,99150.00
2018-11-21T05:01:28.385Z,99153.00
2018-11-21T05:03:58.403Z,99162.00
2018-11-21T05:06:28.452Z,99152.00
2018-11-21T05:08:59.709Z,99159.00
2018-11-21T05:11:29.478Z,99166.00
2018-11-21T05:13:59.388Z,99151.00
2018-11-21T05:16:29.429Z,99170.00
2018-11-21T05:18:59.227Z,99161.00
2018-11-21T05:21:29.039Z,99166.00
2018-11-21T05:23:59.095Z,99166.00
2018-11-21T05:26:28.925Z,99173.00
2018-11-21T05:28:58.782Z,99177.00
2018-11-21T05:31:28.634Z,99181.00
2018-11-21T05:33:58.514Z,99179.00
2018-11-21T05:36:28.339Z,99180.00
2018-11-21T05:38:58.161Z,99178.00
2018-11-21T05:41:28.058Z,99183.00
2018-11-21T05:43:58.075Z,99190.00
2018-11-21T05:46:28.029Z,99193.00
2018-11-21T05:48:57.795Z,99190.00
2018-11-21T05:51:27.711Z,99191.00
2018-11-21T05:53:57.821Z,99199.00
2018-11-21T05:56:27.660Z,99198.00
2018-11-21T05:58:57.530Z,99198.00
2018-11-21T06:01:27.403Z,99210.00
2018-11-21T06:03:57.422Z,99227.00
2018-11-21T06:06:27.339Z,99212.00
2018-11-21T06:08:57.367Z,99217.00
2018-11-21T06:11:27.228Z,99228.00
2018-11-21T06:13:57.267Z,99234.00
2018-11-21T06:16:27.188Z,99235.00
2018-11-21T06:18:58.925Z,99247.00
2018-11-21T06:21:28.760Z,99240.00
2018-11-21T06:23:58.684Z,99244.00
2018-11-21T06:26:28.573Z,99255.00
2018-11-21T06:28:59.168Z,99260.00
2018-11-21T06:31:29.813Z,99266.00
2018-11-21T06:33:59.646Z,99271.00
2018-11-21T06:36:29.502Z,99279.00
2018-11-21T06:38:59.598Z,99278.00
2018-11-21T06:41:29.586Z,99290.00
2018-11-21T06:43:59.515Z,99289.00
2018-11-21T06:46:29.548Z,99309.00
2018-11-21T06:48:59.436Z,99305.00
2018-11-21T06:51:31.870Z,99308.00
2018-11-21T06:53:59.312Z,99315.00
2018-11-21T06:56:29.289Z,99321.00
2018-11-21T06:58:59.307Z,99326.00
2018-11-21T07:01:29.242Z,99336.00
2018-11-21T07:03:59.147Z,99337.00
2018-11-21T07:06:28.945Z,99349.00
2018-11-21T07:08:58.871Z,99343.00
2018-11-21T07:11:28.860Z,99361.00
2018-11-21T07:13:58.704Z,99351.00
2018-11-21T07:16:28.604Z,99357.00
2018-11-21T07:18:58.365Z,99365.00
2018-11-21T07:21:28.241Z,99375.00
2018-11-21T07:23:58.514Z,99378.00
2018-11-21T07:26:28.419Z,99382.00
2018-11-21T07:28:58.259Z,99384.00
2018-11-21T07:31:28.239Z,99389.00
2018-11-21T07:33:58.115Z,99391.00
2018-11-21T07:36:28.191Z,99387.00
2018-11-21T07:38:58.085Z,99401.00
2018-11-21T07:41:28.737Z,99417.00
2018-11-21T07:43:58.499Z,99405.00
2018-11-21T07:46:28.443Z,99413.00
2018-11-21T07:48:58.524Z,99418.00
2018-11-21T07:51:28.367Z,99433.00
2018-11-21T07:53:58.277Z,99434.00
2018-11-21T07:57:26.927Z,99441.00
2018-11-21T08:00:51.081Z,99451.00
2018-11-21T08:03:21.470Z,99463.00
2018-11-21T08:05:56.737Z,99456.00
2018-11-21T08:08:46.595Z,99467.00
2018-11-21T08:11:37.984Z,99478.00
2018-11-21T08:14:41.765Z,99483.00
2018-11-21T08:17:28.839Z,99478.00
2018-11-21T08:20:12.177Z,99485.00
2018-11-21T08:22:59.480Z,99487.00
2018-11-21T08:25:48.439Z,99492.00
2018-11-21T08:28:23.183Z,99492.00
2018-11-21T08:30:53.097Z,99500.00
2018-11-21T08:33:22.913Z,99504.00
2018-11-21T08:35:52.766Z,99510.00
2018-11-21T08:38:22.458Z,99517.00
2018-11-21T08:40:52.449Z,99521.00
2018-11-21T08:43:22.314Z,99518.00
2018-11-21T08:45:52.479Z,99531.00
2018-11-21T08:48:22.703Z,99534.00
2018-11-21T08:50:52.739Z,99545.00
2018-11-21T08:53:22.533Z,99538.00
2018-11-21T08:55:52.338Z,99550.00
2018-11-21T08:58:22.393Z,99553.00
2018-11-21T09:00:52.374Z,99566.00
2018-11-21T09:03:22.122Z,99562.00
2018-11-21T09:05:52.013Z,99556.00
2018-11-21T09:08:22.159Z,99553.00
2018-11-21T09:10:52.756Z,99572.00
2018-11-21T09:13:22.273Z,99568.00
2018-11-21T09:15:52.079Z,99582.00
2018-11-21T09:18:21.911Z,99590.00
2018-11-21T09:20:51.700Z,99600.00
2018-11-21T09:23:21.521Z,99600.00
2018-11-21T09:25:51.897Z,99603.00
2018-11-21T09:28:22.509Z,99615.00
2018-11-21T09:30:52.493Z,99622.00
2018-11-21T09:33:22.306Z,99614.00
2018-11-21T09:35:52.121Z,99620.00
2018-11-21T09:38:22.511Z,99638.00
2018-11-21T09:40:52.701Z,99636.00
2018-11-21T09:43:22.699Z,99635.00
2018-11-21T09:45:52.494Z,99630.00
2018-11-21T09:48:22.443Z,99645.00
2018-11-21T09:50:52.269Z,99640.00
2018-11-21T09:53:22.144Z,99647.00
2018-11-21T09:55:52.079Z,99647.00
2018-11-21T09:58:21.984Z,99648.00
2018-11-21T10:01:46.479Z,99652.00
2018-11-21T10:04:16.390Z,99657.00
2018-11-21T10:06:47.217Z,99654.00
2018-11-21T10:09:19.717Z,99664.00
2018-11-21T10:11:51.764Z,99668.00
2018-11-21T10:14:21.879Z,99676.00
2018-11-21T10:16:52.066Z,99669.00
2018-11-21T10:19:22.110Z,99672.00
2018-11-21T10:21:52.133Z,99677.00
2018-11-21T10:24:21.980Z,99686.00
2018-11-21T10:26:52.711Z,99691.00
2018-11-21T10:29:22.492Z,99696.00
2018-11-21T10:31:53.355Z,99699.00
2018-11-21T10:34:23.252Z,99694.00
2018-11-21T10:36:53.065Z,99700.00
2018-11-21T10:39:22.997Z,99702.00
2018-11-21T10:41:52.892Z,99716.00
2018-11-21T10:44:22.802Z,99716.00
2018-11-21T10:46:52.763Z,99717.00
2018-11-21T10:49:22.530Z,99640.00
2018-11-21T10:51:52.346Z,99726.00
2018-11-21T10:54:22.276Z,99721.00
2018-11-21T10:56:52.134Z,99722.00
2018-11-21T10:59:21.981Z,99717.00
2018-11-21T11:02:09.311Z,99729.00
2018-11-21T11:04:47.011Z,99720.00
2018-11-21T11:07:54.203Z,99712.00
2018-11-21T11:10:46.012Z,99725.00
2018-11-21T11:13:35.448Z,99732.00
2018-11-21T11:16:23.779Z,99738.00
2018-11-21T11:19:13.944Z,99738.00
2018-11-21T11:22:01.124Z,99735.00
2018-11-21T11:24:55.702Z,99735.00
2018-11-21T11:27:43.602Z,99750.00
2018-11-21T11:30:33.307Z,99743.00
2018-11-21T11:33:29.956Z,99758.00
2018-11-21T11:36:15.792Z,99750.00
2018-11-21T11:39:03.668Z,99754.00
2018-11-21T11:41:53.032Z,99749.00
2018-11-21T11:44:44.792Z,99766.00
2018-11-21T11:47:39.491Z,99752.00
2018-11-21T11:50:34.878Z,99764.00
2018-11-21T11:53:29.723Z,99770.00
2018-11-21T11:56:15.424Z,99771.00
2018-11-21T11:59:13.693Z,99777.00
2018-11-21T12:02:05.531Z,99779.00
2018-11-21T12:04:50.935Z,99781.00
2018-11-21T12:07:50.802Z,99788.00
2018-11-21T12:10:38.396Z,99781.00
2018-11-21T12:13:26.285Z,99772.00
2018-11-21T12:16:20.820Z,99782.00
2018-11-21T12:19:08.100Z,99778.00
2018-11-21T12:21:55.715Z,99784.00
2018-11-21T12:24:46.333Z,99789.00
2018-11-21T12:27:37.670Z,99791.00
2018-11-21T12:30:29.401Z,99794.00
2018-11-21T12:33:17.007Z,99790.00
2018-11-21T12:36:04.480Z,99785.00
2018-11-21T12:38:57.159Z,99799.00
2018-11-21T12:41:52.285Z,99791.00
2018-11-21T12:44:38.328Z,99789.00
2018-11-21T12:47:43.130Z,99794.00
2018-11-21T12:50:34.155Z,99797.00
2018-11-21T12:53:23.405Z,99810.00
2018-11-21T12:56:30.506Z,99806.00
2018-11-21T12:59:11.556Z,99798.00
2018-11-21T13:01:56.258Z,99800.00
2018-11-21T13:04:36.374Z,99807.00
2018-11-21T13:07:23.720Z,99811.00
2018-11-21T13:10:24.237Z,99819.00
2018-11-21T13:13:15.703Z,99817.00
2018-11-21T13:16:04.567Z,99810.00
2018-11-21T13:19:02.283Z,99823.00
2018-11-21T13:21:54.085Z,99826.00
2018-11-21T13:24:42.373Z,99823.00
2018-11-21T13:27:33.872Z,99820.00
2018-11-21T13:30:22.826Z,99826.00
2018-11-21T13:33:11.670Z,99824.00
2018-11-21T13:36:03.051Z,99828.00
2018-11-21T13:38:54.842Z,99837.00
2018-11-21T13:41:42.348Z,99835.00
2018-11-21T13:44:29.867Z,99842.00
2018-11-21T13:47:28.659Z,99836.00
2018-11-21T13:50:20.388Z,99830.00
2018-11-21T13:53:12.096Z,99838.00
2018-11-21T13:55:42.017Z,99845.00
2018-11-21T13:58:11.782Z,99859.00
2018-11-21T14:00:41.891Z,99856.00
2018-11-21T14:03:11.848Z,99857.00
2018-11-21T14:05:43.195Z,99866.00
2018-11-21T14:08:13.105Z,99878.00
2018-11-21T14:10:42.881Z,99879.00
2018-11-21T14:13:15.195Z,99881.00
2018-11-21T14:15:45.324Z,99874.00
2018-11-21T14:18:15.179Z,99887.00
2018-11-21T14:20:47.309Z,99887.00
2018-11-21T14:23:17.719Z,99889.00
2018-11-21T14:25:47.547Z,99893.00
2018-11-21T14:28:17.434Z,99895.00
2018-11-21T14:30:47.262Z,99895.00
2018-11-21T14:33:17.182Z,99899.00
2018-11-21T14:35:52.296Z,99894.00
2018-11-21T14:38:21.833Z,99906.00
2018-11-21T14:40:51.595Z,99906.00
2018-11-21T14:43:21.513Z,99910.00
2018-11-21T14:45:51.253Z,99918.00
2018-11-21T14:48:21.047Z,99920.00
2018-11-21T14:50:51.905Z,99923.00
2018-11-21T14:53:21.798Z,99928.00
2018-11-21T14:55:51.623Z,99929.00
2018-11-21T14:58:21.434Z,99944.00
2018-11-21T15:00:51.252Z,99949.00
2018-11-21T15:03:21.248Z,99943.00
2018-11-21T15:05:51.043Z,99946.00
2018-11-21T15:08:21.003Z,99955.00
2018-11-21T15:10:50.906Z,99878.00
2018-11-21T15:13:20.808Z,99970.00
2018-11-21T15:15:50.740Z,99969.00
2018-11-21T15:18:20.621Z,99973.00
2018-11-21T15:20:50.842Z,99985.00
2018-11-21T15:23:20.961Z,99982.00
2018-11-21T15:25:50.888Z,99980.00
2018-11-21T15:28:20.691Z,99979.00
2018-11-21T15:30:50.785Z,99985.00
2018-11-21T15:33:21.092Z,99997.00
2018-11-21T15:35:50.979Z,99994.00
2018-11-21T15:38:20.988Z,99997.00
2018-11-21T15:40:51.665Z,100001.00
2018-11-21T15:43:22.645Z,100000.00
2018-11-21T15:45:52.585Z,100008.00
2018-11-21T15:48:22.376Z,100012.00
2018-11-21T15:50:52.319Z,100014.00
2018-11-21T15:53:22.233Z,100021.00
2018-11-21T15:55:52.120Z,100023.00
2018-11-21T15:58:22.153Z,100020.00
